sensor_id;sensor_type;location;lat;lon;timestamp;P1;durP1;ratioP1;P2;durP2;ratioP2
4533;SDS011;2279;51.448;7.306;2023-03-05T00:01:11;7.53;;;2.50;;
4533;SDS011;2279;51.448;7.306;2023-03-05T00:03:37;4.90;;;2.45;;
4533;SDS011;2279;51.448;7.306;2023-03-05T00:06:03;3.80;;;1.90;;
4533;SDS011;2279;51.448;7.306;2023-03-05T00:08:29;4.13;;;2.30;;
4533;SDS011;2279;51.448;7.306;2023-03-05T00:10:56;15.85;;;2.17;;
4533;SDS011;2279;51.448;7.306;2023-03-05T00:13:22;4.90;;;2.20;;
4533;SDS011;2279;51.448;7.306;2023-03-05T00:15:48;5.30;;;2.83;;
4533;SDS011;2279;51.448;7.306;2023-03-05T00:18:14;8.47;;;2.40;;
4533;SDS011;2279;51.448;7.306;2023-03-05T00:20:40;5.70;;;3.00;;
4533;SDS011;2279;51.448;7.306;2023-03-05T00:23:06;4.57;;;2.83;;
4533;SDS011;2279;51.448;7.306;2023-03-05T00:25:35;7.23;;;2.97;;
4533;SDS011;2279;51.448;7.306;2023-03-05T00:28:01;4.40;;;2.42;;
4533;SDS011;2279;51.448;7.306;2023-03-05T00:30:27;6.80;;;3.20;;
4533;SDS011;2279;51.448;7.306;2023-03-05T00:32:53;10.20;;;3.35;;
4533;SDS011;2279;51.448;7.306;2023-03-05T00:35:19;12.30;;;4.10;;
4533;SDS011;2279;51.448;7.306;2023-03-05T00:37:45;5.50;;;2.60;;
4533;SDS011;2279;51.448;7.306;2023-03-05T00:40:11;12.30;;;3.25;;
4533;SDS011;2279;51.448;7.306;2023-03-05T00:42:38;7.07;;;3.25;;
4533;SDS011;2279;51.448;7.306;2023-03-05T00:45:05;11.13;;;5.13;;
4533;SDS011;2279;51.448;7.306;2023-03-05T00:47:31;6.30;;;3.63;;
4533;SDS011;2279;51.448;7.306;2023-03-05T00:49:57;11.25;;;4.68;;
4533;SDS011;2279;51.448;7.306;2023-03-05T00:52:23;6.70;;;4.10;;
4533;SDS011;2279;51.448;7.306;2023-03-05T00:54:49;8.10;;;3.55;;
4533;SDS011;2279;51.448;7.306;2023-03-05T00:57:15;9.50;;;3.97;;
4533;SDS011;2279;51.448;7.306;2023-03-05T00:59:41;7.75;;;3.75;;
4533;SDS011;2279;51.448;7.306;2023-03-05T01:02:07;14.70;;;4.17;;
4533;SDS011;2279;51.448;7.306;2023-03-05T01:04:33;11.80;;;5.33;;
4533;SDS011;2279;51.448;7.306;2023-03-05T01:06:59;7.22;;;3.78;;
4533;SDS011;2279;51.448;7.306;2023-03-05T01:09:25;11.25;;;4.20;;
4533;SDS011;2279;51.448;7.306;2023-03-05T01:11:51;12.45;;;3.90;;
4533;SDS011;2279;51.448;7.306;2023-03-05T01:14:18;5.68;;;3.15;;
4533;SDS011;2279;51.448;7.306;2023-03-05T01:16:44;7.85;;;3.70;;
4533;SDS011;2279;51.448;7.306;2023-03-05T01:19:10;8.60;;;3.80;;
4533;SDS011;2279;51.448;7.306;2023-03-05T01:21:36;10.60;;;4.05;;
4533;SDS011;2279;51.448;7.306;2023-03-05T01:24:02;5.93;;;3.70;;
4533;SDS011;2279;51.448;7.306;2023-03-05T01:26:28;9.05;;;3.90;;
4533;SDS011;2279;51.448;7.306;2023-03-05T01:28:54;8.43;;;5.82;;
4533;SDS011;2279;51.448;7.306;2023-03-05T01:31:20;7.50;;;4.93;;
4533;SDS011;2279;51.448;7.306;2023-03-05T01:33:46;12.85;;;5.72;;
4533;SDS011;2279;51.448;7.306;2023-03-05T01:36:13;6.05;;;4.35;;
4533;SDS011;2279;51.448;7.306;2023-03-05T01:38:44;6.45;;;3.35;;
4533;SDS011;2279;51.448;7.306;2023-03-05T01:41:10;9.38;;;4.28;;
4533;SDS011;2279;51.448;7.306;2023-03-05T01:43:36;4.53;;;3.42;;
4533;SDS011;2279;51.448;7.306;2023-03-05T01:48:48;7.32;;;3.85;;
4533;SDS011;2279;51.448;7.306;2023-03-05T01:51:15;8.82;;;4.72;;
4533;SDS011;2279;51.448;7.306;2023-03-05T01:53:41;12.23;;;4.50;;
4533;SDS011;2279;51.448;7.306;2023-03-05T01:56:07;6.27;;;4.57;;
4533;SDS011;2279;51.448;7.306;2023-03-05T01:58:33;17.48;;;5.72;;
4533;SDS011;2279;51.448;7.306;2023-03-05T02:00:59;9.68;;;5.00;;
4533;SDS011;2279;51.448;7.306;2023-03-05T02:03:26;9.63;;;5.20;;
4533;SDS011;2279;51.448;7.306;2023-03-05T02:05:52;10.70;;;5.87;;
4533;SDS011;2279;51.448;7.306;2023-03-05T02:08:20;7.47;;;5.07;;
4533;SDS011;2279;51.448;7.306;2023-03-05T02:10:47;15.05;;;4.63;;
4533;SDS011;2279;51.448;7.306;2023-03-05T02:13:14;6.45;;;4.53;;
4533;SDS011;2279;51.448;7.306;2023-03-05T02:15:41;8.95;;;5.90;;
4533;SDS011;2279;51.448;7.306;2023-03-05T02:18:07;14.30;;;5.60;;
4533;SDS011;2279;51.448;7.306;2023-03-05T02:23:15;9.07;;;4.07;;
4533;SDS011;2279;51.448;7.306;2023-03-05T02:25:41;15.02;;;5.07;;
4533;SDS011;2279;51.448;7.306;2023-03-05T02:31:12;9.48;;;4.13;;
4533;SDS011;2279;51.448;7.306;2023-03-05T02:33:38;4.50;;;3.72;;
4533;SDS011;2279;51.448;7.306;2023-03-05T02:36:04;3.67;;;3.37;;
4533;SDS011;2279;51.448;7.306;2023-03-05T02:38:31;9.63;;;3.70;;
4533;SDS011;2279;51.448;7.306;2023-03-05T02:40:57;5.35;;;3.38;;
4533;SDS011;2279;51.448;7.306;2023-03-05T02:43:23;15.57;;;4.47;;
4533;SDS011;2279;51.448;7.306;2023-03-05T02:45:49;5.03;;;3.67;;
4533;SDS011;2279;51.448;7.306;2023-03-05T02:48:15;6.03;;;3.57;;
4533;SDS011;2279;51.448;7.306;2023-03-05T02:50:41;10.60;;;3.70;;
4533;SDS011;2279;51.448;7.306;2023-03-05T02:53:07;5.72;;;3.72;;
4533;SDS011;2279;51.448;7.306;2023-03-05T02:55:33;5.70;;;3.50;;
4533;SDS011;2279;51.448;7.306;2023-03-05T02:57:59;6.30;;;4.25;;
4533;SDS011;2279;51.448;7.306;2023-03-05T03:00:25;5.40;;;3.63;;
4533;SDS011;2279;51.448;7.306;2023-03-05T03:02:51;3.63;;;2.65;;
4533;SDS011;2279;51.448;7.306;2023-03-05T03:05:17;6.80;;;3.53;;
4533;SDS011;2279;51.448;7.306;2023-03-05T03:07:43;8.97;;;2.57;;
4533;SDS011;2279;51.448;7.306;2023-03-05T03:10:09;8.43;;;3.10;;
4533;SDS011;2279;51.448;7.306;2023-03-05T03:12:36;5.30;;;3.10;;
4533;SDS011;2279;51.448;7.306;2023-03-05T03:15:02;11.43;;;3.00;;
4533;SDS011;2279;51.448;7.306;2023-03-05T03:17:28;7.93;;;2.58;;
4533;SDS011;2279;51.448;7.306;2023-03-05T03:19:54;7.90;;;2.43;;
4533;SDS011;2279;51.448;7.306;2023-03-05T03:22:20;3.53;;;2.17;;
4533;SDS011;2279;51.448;7.306;2023-03-05T03:24:46;3.07;;;2.77;;
4533;SDS011;2279;51.448;7.306;2023-03-05T03:27:12;7.83;;;2.33;;
4533;SDS011;2279;51.448;7.306;2023-03-05T03:29:38;7.23;;;2.50;;
4533;SDS011;2279;51.448;7.306;2023-03-05T03:32:04;12.13;;;3.57;;
4533;SDS011;2279;51.448;7.306;2023-03-05T03:34:30;8.88;;;2.97;;
4533;SDS011;2279;51.448;7.306;2023-03-05T03:36:56;6.80;;;2.80;;
4533;SDS011;2279;51.448;7.306;2023-03-05T03:39:22;4.80;;;3.33;;
4533;SDS011;2279;51.448;7.306;2023-03-05T03:41:50;7.68;;;3.53;;
4533;SDS011;2279;51.448;7.306;2023-03-05T03:44:17;7.85;;;3.30;;
4533;SDS011;2279;51.448;7.306;2023-03-05T03:46:44;6.07;;;3.90;;
4533;SDS011;2279;51.448;7.306;2023-03-05T03:49:13;11.93;;;3.40;;
4533;SDS011;2279;51.448;7.306;2023-03-05T03:51:39;6.45;;;3.50;;
4533;SDS011;2279;51.448;7.306;2023-03-05T03:54:05;6.10;;;4.07;;
4533;SDS011;2279;51.448;7.306;2023-03-05T03:56:31;9.67;;;4.37;;
4533;SDS011;2279;51.448;7.306;2023-03-05T03:58:57;5.97;;;4.07;;
4533;SDS011;2279;51.448;7.306;2023-03-05T04:01:23;4.20;;;3.40;;
4533;SDS011;2279;51.448;7.306;2023-03-05T04:03:49;13.80;;;3.40;;
4533;SDS011;2279;51.448;7.306;2023-03-05T04:06:15;4.10;;;3.10;;
4533;SDS011;2279;51.448;7.306;2023-03-05T04:08:41;4.13;;;3.03;;
4533;SDS011;2279;51.448;7.306;2023-03-05T04:11:07;4.93;;;3.33;;
4533;SDS011;2279;51.448;7.306;2023-03-05T04:13:33;3.58;;;2.80;;
4533;SDS011;2279;51.448;7.306;2023-03-05T04:15:59;7.00;;;3.20;;
4533;SDS011;2279;51.448;7.306;2023-03-05T04:18:25;10.30;;;3.70;;
4533;SDS011;2279;51.448;7.306;2023-03-05T04:20:51;4.17;;;3.23;;
4533;SDS011;2279;51.448;7.306;2023-03-05T04:23:17;10.60;;;3.03;;
4533;SDS011;2279;51.448;7.306;2023-03-05T04:25:43;8.98;;;3.30;;
4533;SDS011;2279;51.448;7.306;2023-03-05T04:28:09;4.20;;;2.93;;
4533;SDS011;2279;51.448;7.306;2023-03-05T04:30:35;3.60;;;3.28;;
4533;SDS011;2279;51.448;7.306;2023-03-05T04:33:01;7.63;;;3.67;;
4533;SDS011;2279;51.448;7.306;2023-03-05T04:35:27;7.43;;;4.07;;
4533;SDS011;2279;51.448;7.306;2023-03-05T04:37:53;7.37;;;4.20;;
4533;SDS011;2279;51.448;7.306;2023-03-05T04:40:19;10.67;;;4.47;;
4533;SDS011;2279;51.448;7.306;2023-03-05T04:42:45;17.48;;;5.40;;
4533;SDS011;2279;51.448;7.306;2023-03-05T04:45:11;7.33;;;4.17;;
4533;SDS011;2279;51.448;7.306;2023-03-05T04:47:37;10.85;;;4.80;;
4533;SDS011;2279;51.448;7.306;2023-03-05T04:50:03;9.03;;;5.20;;
4533;SDS011;2279;51.448;7.306;2023-03-05T04:52:29;7.80;;;4.28;;
4533;SDS011;2279;51.448;7.306;2023-03-05T04:54:55;7.83;;;4.13;;
4533;SDS011;2279;51.448;7.306;2023-03-05T04:57:21;12.93;;;5.17;;
4533;SDS011;2279;51.448;7.306;2023-03-05T04:59:47;6.35;;;4.65;;
4533;SDS011;2279;51.448;7.306;2023-03-05T05:02:13;6.93;;;4.33;;
4533;SDS011;2279;51.448;7.306;2023-03-05T05:04:40;11.07;;;4.57;;
4533;SDS011;2279;51.448;7.306;2023-03-05T05:07:09;7.05;;;4.10;;
4533;SDS011;2279;51.448;7.306;2023-03-05T05:09:36;6.88;;;3.70;;
4533;SDS011;2279;51.448;7.306;2023-03-05T05:12:02;8.32;;;5.22;;
4533;SDS011;2279;51.448;7.306;2023-03-05T05:14:28;8.10;;;5.22;;
4533;SDS011;2279;51.448;7.306;2023-03-05T05:16:54;4.83;;;3.93;;
4533;SDS011;2279;51.448;7.306;2023-03-05T05:19:20;14.70;;;5.53;;
4533;SDS011;2279;51.448;7.306;2023-03-05T05:21:46;10.50;;;6.07;;
4533;SDS011;2279;51.448;7.306;2023-03-05T05:24:12;18.33;;;7.53;;
4533;SDS011;2279;51.448;7.306;2023-03-05T05:26:38;18.02;;;7.60;;
4533;SDS011;2279;51.448;7.306;2023-03-05T05:29:04;16.87;;;7.10;;
4533;SDS011;2279;51.448;7.306;2023-03-05T05:31:30;18.45;;;8.98;;
4533;SDS011;2279;51.448;7.306;2023-03-05T05:33:56;16.73;;;7.60;;
4533;SDS011;2279;51.448;7.306;2023-03-05T05:36:22;20.67;;;7.50;;
4533;SDS011;2279;51.448;7.306;2023-03-05T05:38:48;16.83;;;8.07;;
4533;SDS011;2279;51.448;7.306;2023-03-05T05:41:14;16.55;;;7.95;;
4533;SDS011;2279;51.448;7.306;2023-03-05T05:43:41;21.25;;;8.15;;
4533;SDS011;2279;51.448;7.306;2023-03-05T05:46:08;20.50;;;8.60;;
4533;SDS011;2279;51.448;7.306;2023-03-05T05:48:35;19.08;;;7.03;;
4533;SDS011;2279;51.448;7.306;2023-03-05T05:51:05;20.27;;;7.63;;
4533;SDS011;2279;51.448;7.306;2023-03-05T05:53:31;18.80;;;8.05;;
4533;SDS011;2279;51.448;7.306;2023-03-05T05:55:57;18.70;;;7.80;;
4533;SDS011;2279;51.448;7.306;2023-03-05T05:58:23;17.40;;;8.17;;
4533;SDS011;2279;51.448;7.306;2023-03-05T06:00:49;15.00;;;7.80;;
4533;SDS011;2279;51.448;7.306;2023-03-05T06:03:15;18.83;;;7.97;;
4533;SDS011;2279;51.448;7.306;2023-03-05T06:05:41;14.30;;;8.30;;
4533;SDS011;2279;51.448;7.306;2023-03-05T06:08:07;14.17;;;7.97;;
4533;SDS011;2279;51.448;7.306;2023-03-05T06:10:33;18.20;;;9.20;;
4533;SDS011;2279;51.448;7.306;2023-03-05T06:12:59;28.03;;;9.30;;
4533;SDS011;2279;51.448;7.306;2023-03-05T06:15:25;12.13;;;8.45;;
4533;SDS011;2279;51.448;7.306;2023-03-05T06:17:51;15.97;;;8.10;;
4533;SDS011;2279;51.448;7.306;2023-03-05T06:20:18;21.23;;;9.18;;
4533;SDS011;2279;51.448;7.306;2023-03-05T06:22:44;14.88;;;8.50;;
4533;SDS011;2279;51.448;7.306;2023-03-05T06:25:11;21.30;;;10.35;;
4533;SDS011;2279;51.448;7.306;2023-03-05T06:27:37;15.43;;;9.35;;
4533;SDS011;2279;51.448;7.306;2023-03-05T06:30:04;23.05;;;10.30;;
4533;SDS011;2279;51.448;7.306;2023-03-05T06:32:30;14.40;;;8.23;;
4533;SDS011;2279;51.448;7.306;2023-03-05T06:34:56;20.10;;;10.50;;
4533;SDS011;2279;51.448;7.306;2023-03-05T06:37:22;23.50;;;10.90;;
4533;SDS011;2279;51.448;7.306;2023-03-05T06:39:48;16.30;;;9.55;;
4533;SDS011;2279;51.448;7.306;2023-03-05T06:42:14;16.87;;;10.30;;
4533;SDS011;2279;51.448;7.306;2023-03-05T06:44:41;20.98;;;9.43;;
4533;SDS011;2279;51.448;7.306;2023-03-05T06:47:08;16.15;;;8.80;;
4533;SDS011;2279;51.448;7.306;2023-03-05T06:49:34;19.92;;;9.55;;
4533;SDS011;2279;51.448;7.306;2023-03-05T06:52:00;10.48;;;7.22;;
4533;SDS011;2279;51.448;7.306;2023-03-05T06:54:27;13.60;;;6.78;;
4533;SDS011;2279;51.448;7.306;2023-03-05T06:56:53;16.02;;;7.05;;
4533;SDS011;2279;51.448;7.306;2023-03-05T06:59:19;12.00;;;6.10;;
4533;SDS011;2279;51.448;7.306;2023-03-05T07:01:46;20.25;;;6.95;;
4533;SDS011;2279;51.448;7.306;2023-03-05T07:04:12;12.98;;;6.32;;
4533;SDS011;2279;51.448;7.306;2023-03-05T07:06:38;11.98;;;6.22;;
4533;SDS011;2279;51.448;7.306;2023-03-05T07:09:06;16.48;;;5.25;;
4533;SDS011;2279;51.448;7.306;2023-03-05T07:11:32;12.48;;;5.07;;
4533;SDS011;2279;51.448;7.306;2023-03-05T07:13:58;7.93;;;4.80;;
4533;SDS011;2279;51.448;7.306;2023-03-05T07:16:25;13.47;;;5.10;;
4533;SDS011;2279;51.448;7.306;2023-03-05T07:18:52;12.75;;;5.22;;
4533;SDS011;2279;51.448;7.306;2023-03-05T07:21:25;13.43;;;4.70;;
4533;SDS011;2279;51.448;7.306;2023-03-05T07:23:53;7.10;;;4.75;;
4533;SDS011;2279;51.448;7.306;2023-03-05T07:26:19;9.18;;;4.63;;
4533;SDS011;2279;51.448;7.306;2023-03-05T07:28:45;6.68;;;3.80;;
4533;SDS011;2279;51.448;7.306;2023-03-05T07:31:18;11.25;;;5.28;;
4533;SDS011;2279;51.448;7.306;2023-03-05T07:33:45;6.45;;;4.00;;
4533;SDS011;2279;51.448;7.306;2023-03-05T07:36:11;4.68;;;3.97;;
4533;SDS011;2279;51.448;7.306;2023-03-05T07:38:37;8.60;;;4.20;;
4533;SDS011;2279;51.448;7.306;2023-03-05T07:41:04;9.50;;;4.13;;
4533;SDS011;2279;51.448;7.306;2023-03-05T07:43:30;4.85;;;3.70;;
4533;SDS011;2279;51.448;7.306;2023-03-05T07:45:56;11.57;;;4.67;;
4533;SDS011;2279;51.448;7.306;2023-03-05T07:48:23;9.50;;;4.27;;
4533;SDS011;2279;51.448;7.306;2023-03-05T07:50:49;9.65;;;4.95;;
4533;SDS011;2279;51.448;7.306;2023-03-05T07:53:15;13.93;;;5.20;;
4533;SDS011;2279;51.448;7.306;2023-03-05T07:55:42;5.50;;;4.13;;
4533;SDS011;2279;51.448;7.306;2023-03-05T07:58:08;12.15;;;5.50;;
4533;SDS011;2279;51.448;7.306;2023-03-05T08:00:34;9.73;;;5.85;;
4533;SDS011;2279;51.448;7.306;2023-03-05T08:03:00;10.88;;;6.47;;
4533;SDS011;2279;51.448;7.306;2023-03-05T08:05:26;11.07;;;6.03;;
4533;SDS011;2279;51.448;7.306;2023-03-05T08:07:52;8.17;;;5.10;;
4533;SDS011;2279;51.448;7.306;2023-03-05T08:10:18;16.23;;;6.20;;
4533;SDS011;2279;51.448;7.306;2023-03-05T08:12:44;7.30;;;4.67;;
4533;SDS011;2279;51.448;7.306;2023-03-05T08:15:10;12.57;;;5.60;;
4533;SDS011;2279;51.448;7.306;2023-03-05T08:17:36;8.45;;;6.90;;
4533;SDS011;2279;51.448;7.306;2023-03-05T08:20:02;15.53;;;5.93;;
4533;SDS011;2279;51.448;7.306;2023-03-05T08:22:32;12.60;;;6.97;;
4533;SDS011;2279;51.448;7.306;2023-03-05T08:24:59;18.23;;;8.90;;
4533;SDS011;2279;51.448;7.306;2023-03-05T08:27:25;16.10;;;9.05;;
4533;SDS011;2279;51.448;7.306;2023-03-05T08:29:51;15.97;;;9.20;;
4533;SDS011;2279;51.448;7.306;2023-03-05T08:32:17;32.77;;;16.23;;
4533;SDS011;2279;51.448;7.306;2023-03-05T08:34:43;23.70;;;11.37;;
4533;SDS011;2279;51.448;7.306;2023-03-05T08:37:09;37.63;;;15.90;;
4533;SDS011;2279;51.448;7.306;2023-03-05T08:39:35;34.97;;;13.43;;
4533;SDS011;2279;51.448;7.306;2023-03-05T08:42:02;32.35;;;14.95;;
4533;SDS011;2279;51.448;7.306;2023-03-05T08:44:28;31.77;;;15.35;;
4533;SDS011;2279;51.448;7.306;2023-03-05T08:46:54;33.25;;;14.40;;
4533;SDS011;2279;51.448;7.306;2023-03-05T08:49:20;20.13;;;11.10;;
4533;SDS011;2279;51.448;7.306;2023-03-05T08:51:46;16.83;;;9.70;;
4533;SDS011;2279;51.448;7.306;2023-03-05T08:54:14;18.33;;;10.27;;
4533;SDS011;2279;51.448;7.306;2023-03-05T08:56:40;17.33;;;10.45;;
4533;SDS011;2279;51.448;7.306;2023-03-05T08:59:06;12.93;;;9.03;;
4533;SDS011;2279;51.448;7.306;2023-03-05T09:01:32;16.30;;;9.70;;
4533;SDS011;2279;51.448;7.306;2023-03-05T09:03:59;16.90;;;9.27;;
4533;SDS011;2279;51.448;7.306;2023-03-05T09:06:25;22.20;;;12.20;;
4533;SDS011;2279;51.448;7.306;2023-03-05T09:08:52;20.27;;;13.75;;
4533;SDS011;2279;51.448;7.306;2023-03-05T09:11:18;21.45;;;12.23;;
4533;SDS011;2279;51.448;7.306;2023-03-05T09:13:45;19.95;;;13.00;;
4533;SDS011;2279;51.448;7.306;2023-03-05T09:16:12;24.13;;;13.38;;
4533;SDS011;2279;51.448;7.306;2023-03-05T09:18:38;22.15;;;12.75;;
4533;SDS011;2279;51.448;7.306;2023-03-05T09:21:09;22.55;;;13.25;;
4533;SDS011;2279;51.448;7.306;2023-03-05T09:23:35;29.38;;;15.90;;
4533;SDS011;2279;51.448;7.306;2023-03-05T09:26:03;25.65;;;16.08;;
4533;SDS011;2279;51.448;7.306;2023-03-05T09:28:29;24.95;;;15.02;;
4533;SDS011;2279;51.448;7.306;2023-03-05T09:30:55;23.13;;;15.30;;
4533;SDS011;2279;51.448;7.306;2023-03-05T09:33:21;18.67;;;13.37;;
4533;SDS011;2279;51.448;7.306;2023-03-05T09:35:47;25.88;;;15.50;;
4533;SDS011;2279;51.448;7.306;2023-03-05T09:38:13;23.73;;;15.13;;
4533;SDS011;2279;51.448;7.306;2023-03-05T09:40:45;20.45;;;14.93;;
4533;SDS011;2279;51.448;7.306;2023-03-05T09:43:31;20.33;;;14.07;;
4533;SDS011;2279;51.448;7.306;2023-03-05T09:48:49;18.23;;;12.00;;
4533;SDS011;2279;51.448;7.306;2023-03-05T09:51:17;12.85;;;9.75;;
4533;SDS011;2279;51.448;7.306;2023-03-05T09:53:47;16.20;;;10.75;;
4533;SDS011;2279;51.448;7.306;2023-03-05T09:56:38;14.40;;;9.40;;
4533;SDS011;2279;51.448;7.306;2023-03-05T10:01:36;20.63;;;10.13;;
4533;SDS011;2279;51.448;7.306;2023-03-05T10:04:13;14.05;;;10.10;;
4533;SDS011;2279;51.448;7.306;2023-03-05T10:06:59;17.23;;;11.18;;
4533;SDS011;2279;51.448;7.306;2023-03-05T10:12:17;15.00;;;10.52;;
4533;SDS011;2279;51.448;7.306;2023-03-05T10:14:45;15.40;;;10.93;;
4533;SDS011;2279;51.448;7.306;2023-03-05T10:22:46;16.48;;;9.50;;
4533;SDS011;2279;51.448;7.306;2023-03-05T10:28:16;15.77;;;9.47;;
4533;SDS011;2279;51.448;7.306;2023-03-05T10:35:59;14.30;;;9.00;;
4533;SDS011;2279;51.448;7.306;2023-03-05T10:46:16;17.33;;;8.67;;
4533;SDS011;2279;51.448;7.306;2023-03-05T10:48:50;13.60;;;9.33;;
4533;SDS011;2279;51.448;7.306;2023-03-05T10:51:20;14.05;;;9.02;;
4533;SDS011;2279;51.448;7.306;2023-03-05T10:53:51;15.82;;;8.40;;
4533;SDS011;2279;51.448;7.306;2023-03-05T10:56:18;9.52;;;7.28;;
4533;SDS011;2279;51.448;7.306;2023-03-05T10:58:45;14.85;;;8.27;;
4533;SDS011;2279;51.448;7.306;2023-03-05T11:06:34;8.25;;;6.57;;
4533;SDS011;2279;51.448;7.306;2023-03-05T11:11:38;25.88;;;13.00;;
4533;SDS011;2279;51.448;7.306;2023-03-05T11:14:04;11.00;;;8.23;;
4533;SDS011;2279;51.448;7.306;2023-03-05T11:16:47;10.80;;;7.40;;
4533;SDS011;2279;51.448;7.306;2023-03-05T11:21:39;9.30;;;7.20;;
4533;SDS011;2279;51.448;7.306;2023-03-05T11:24:10;8.83;;;6.93;;
4533;SDS011;2279;51.448;7.306;2023-03-05T11:26:44;8.70;;;5.82;;
4533;SDS011;2279;51.448;7.306;2023-03-05T11:29:15;8.38;;;5.65;;
4533;SDS011;2279;51.448;7.306;2023-03-05T11:31:41;7.40;;;6.50;;
4533;SDS011;2279;51.448;7.306;2023-03-05T11:36:43;5.80;;;5.07;;
4533;SDS011;2279;51.448;7.306;2023-03-05T11:39:27;10.93;;;5.35;;
4533;SDS011;2279;51.448;7.306;2023-03-05T11:47:10;10.80;;;7.60;;
4533;SDS011;2279;51.448;7.306;2023-03-05T11:49:40;9.48;;;8.10;;
4533;SDS011;2279;51.448;7.306;2023-03-05T11:54:58;14.43;;;8.33;;
4533;SDS011;2279;51.448;7.306;2023-03-05T11:57:28;13.03;;;9.00;;
4533;SDS011;2279;51.448;7.306;2023-03-05T11:59:55;9.27;;;7.73;;
4533;SDS011;2279;51.448;7.306;2023-03-05T12:02:23;10.07;;;7.63;;
4533;SDS011;2279;51.448;7.306;2023-03-05T12:04:50;7.43;;;6.57;;
4533;SDS011;2279;51.448;7.306;2023-03-05T12:07:17;8.40;;;7.00;;
4533;SDS011;2279;51.448;7.306;2023-03-05T12:09:45;9.67;;;7.80;;
4533;SDS011;2279;51.448;7.306;2023-03-05T12:15:00;7.07;;;6.33;;
4533;SDS011;2279;51.448;7.306;2023-03-05T12:17:28;10.27;;;6.00;;
4533;SDS011;2279;51.448;7.306;2023-03-05T12:19:57;8.50;;;5.70;;
4533;SDS011;2279;51.448;7.306;2023-03-05T12:22:31;6.43;;;5.80;;
4533;SDS011;2279;51.448;7.306;2023-03-05T12:27:43;4.10;;;3.80;;
4533;SDS011;2279;51.448;7.306;2023-03-05T12:32:54;4.57;;;3.20;;
4533;SDS011;2279;51.448;7.306;2023-03-05T12:35:22;5.93;;;3.03;;
4533;SDS011;2279;51.448;7.306;2023-03-05T12:42:44;2.63;;;2.10;;
4533;SDS011;2279;51.448;7.306;2023-03-05T12:47:38;2.20;;;2.00;;
4533;SDS011;2279;51.448;7.306;2023-03-05T12:50:07;1.70;;;1.60;;
4533;SDS011;2279;51.448;7.306;2023-03-05T12:52:51;3.13;;;2.87;;
4533;SDS011;2279;51.448;7.306;2023-03-05T12:55:18;2.30;;;2.10;;
4533;SDS011;2279;51.448;7.306;2023-03-05T12:57:48;2.33;;;2.13;;
4533;SDS011;2279;51.448;7.306;2023-03-05T13:02:45;4.10;;;3.10;;
4533;SDS011;2279;51.448;7.306;2023-03-05T13:05:18;2.77;;;2.57;;
4533;SDS011;2279;51.448;7.306;2023-03-05T13:07:45;2.40;;;2.20;;
4533;SDS011;2279;51.448;7.306;2023-03-05T13:10:48;4.07;;;3.80;;
4533;SDS011;2279;51.448;7.306;2023-03-05T13:13:03;5.30;;;3.43;;
4533;SDS011;2279;51.448;7.306;2023-03-05T13:15:29;11.20;;;6.53;;
4533;SDS011;2279;51.448;7.306;2023-03-05T13:17:56;8.13;;;5.90;;
4533;SDS011;2279;51.448;7.306;2023-03-05T13:25:39;5.30;;;4.80;;
4533;SDS011;2279;51.448;7.306;2023-03-05T13:28:12;5.17;;;4.67;;
4533;SDS011;2279;51.448;7.306;2023-03-05T13:30:41;5.00;;;4.50;;
4533;SDS011;2279;51.448;7.306;2023-03-05T13:33:13;4.50;;;4.10;;
4533;SDS011;2279;51.448;7.306;2023-03-05T13:35:43;4.93;;;4.50;;
4533;SDS011;2279;51.448;7.306;2023-03-05T13:38:23;5.80;;;5.30;;
4533;SDS011;2279;51.448;7.306;2023-03-05T13:41:06;5.60;;;5.10;;
4533;SDS011;2279;51.448;7.306;2023-03-05T13:43:32;6.40;;;4.77;;
4533;SDS011;2279;51.448;7.306;2023-03-05T13:45:58;7.13;;;4.77;;
4533;SDS011;2279;51.448;7.306;2023-03-05T13:48:25;8.87;;;4.73;;
4533;SDS011;2279;51.448;7.306;2023-03-05T13:50:53;4.73;;;4.33;;
4533;SDS011;2279;51.448;7.306;2023-03-05T13:55:49;8.53;;;5.67;;
4533;SDS011;2279;51.448;7.306;2023-03-05T14:01:04;6.40;;;4.60;;
4533;SDS011;2279;51.448;7.306;2023-03-05T14:03:36;6.00;;;4.43;;
4533;SDS011;2279;51.448;7.306;2023-03-05T14:06:07;5.33;;;4.67;;
4533;SDS011;2279;51.448;7.306;2023-03-05T14:08:34;7.40;;;4.53;;
4533;SDS011;2279;51.448;7.306;2023-03-05T14:11:09;7.67;;;4.53;;
4533;SDS011;2279;51.448;7.306;2023-03-05T14:13:36;4.10;;;3.77;;
4533;SDS011;2279;51.448;7.306;2023-03-05T14:16:07;4.40;;;3.93;;
4533;SDS011;2279;51.448;7.306;2023-03-05T14:18:33;4.43;;;4.07;;
4533;SDS011;2279;51.448;7.306;2023-03-05T14:21:07;6.13;;;4.67;;
4533;SDS011;2279;51.448;7.306;2023-03-05T14:23:40;8.17;;;5.87;;
4533;SDS011;2279;51.448;7.306;2023-03-05T14:26:21;8.17;;;6.40;;
4533;SDS011;2279;51.448;7.306;2023-03-05T14:31:19;10.53;;;7.53;;
4533;SDS011;2279;51.448;7.306;2023-03-05T14:33:46;9.93;;;7.97;;
4533;SDS011;2279;51.448;7.306;2023-03-05T14:36:13;8.80;;;6.37;;
4533;SDS011;2279;51.448;7.306;2023-03-05T14:38:39;7.93;;;7.13;;
4533;SDS011;2279;51.448;7.306;2023-03-05T14:44:12;7.07;;;6.37;;
4533;SDS011;2279;51.448;7.306;2023-03-05T14:46:38;8.97;;;6.77;;
4533;SDS011;2279;51.448;7.306;2023-03-05T14:49:04;8.50;;;6.90;;
4533;SDS011;2279;51.448;7.306;2023-03-05T14:51:31;9.80;;;6.60;;
4533;SDS011;2279;51.448;7.306;2023-03-05T14:53:58;8.63;;;5.73;;
4533;SDS011;2279;51.448;7.306;2023-03-05T14:56:25;7.80;;;6.60;;
4533;SDS011;2279;51.448;7.306;2023-03-05T14:58:51;10.23;;;7.07;;
4533;SDS011;2279;51.448;7.306;2023-03-05T15:01:17;9.83;;;6.30;;
4533;SDS011;2279;51.448;7.306;2023-03-05T15:03:43;10.80;;;6.60;;
4533;SDS011;2279;51.448;7.306;2023-03-05T15:06:15;8.83;;;7.10;;
4533;SDS011;2279;51.448;7.306;2023-03-05T15:08:42;8.80;;;6.63;;
4533;SDS011;2279;51.448;7.306;2023-03-05T15:11:08;9.10;;;6.73;;
4533;SDS011;2279;51.448;7.306;2023-03-05T15:13:34;12.60;;;6.40;;
4533;SDS011;2279;51.448;7.306;2023-03-05T15:16:00;12.77;;;7.30;;
4533;SDS011;2279;51.448;7.306;2023-03-05T15:18:26;11.33;;;6.50;;
4533;SDS011;2279;51.448;7.306;2023-03-05T15:20:52;10.13;;;7.00;;
4533;SDS011;2279;51.448;7.306;2023-03-05T15:23:20;8.67;;;6.40;;
4533;SDS011;2279;51.448;7.306;2023-03-05T15:25:46;10.20;;;6.80;;
4533;SDS011;2279;51.448;7.306;2023-03-05T15:28:12;9.87;;;6.70;;
4533;SDS011;2279;51.448;7.306;2023-03-05T15:30:40;10.10;;;6.93;;
4533;SDS011;2279;51.448;7.306;2023-03-05T15:33:07;6.70;;;6.00;;
4533;SDS011;2279;51.448;7.306;2023-03-05T15:35:33;8.63;;;7.70;;
4533;SDS011;2279;51.448;7.306;2023-03-05T15:37:59;9.13;;;6.53;;
4533;SDS011;2279;51.448;7.306;2023-03-05T15:40:26;7.50;;;5.80;;
4533;SDS011;2279;51.448;7.306;2023-03-05T15:42:52;5.67;;;5.07;;
4533;SDS011;2279;51.448;7.306;2023-03-05T15:45:18;6.17;;;5.33;;
4533;SDS011;2279;51.448;7.306;2023-03-05T15:47:47;6.60;;;5.40;;
4533;SDS011;2279;51.448;7.306;2023-03-05T15:50:13;8.63;;;4.77;;
4533;SDS011;2279;51.448;7.306;2023-03-05T15:52:38;6.73;;;5.60;;
4533;SDS011;2279;51.448;7.306;2023-03-05T15:55:05;7.43;;;5.00;;
4533;SDS011;2279;51.448;7.306;2023-03-05T15:57:32;7.20;;;5.30;;
4533;SDS011;2279;51.448;7.306;2023-03-05T15:59:59;5.87;;;5.07;;
4533;SDS011;2279;51.448;7.306;2023-03-05T16:02:25;8.07;;;4.90;;
4533;SDS011;2279;51.448;7.306;2023-03-05T16:04:51;8.33;;;5.30;;
4533;SDS011;2279;51.448;7.306;2023-03-05T16:07:17;5.90;;;5.30;;
4533;SDS011;2279;51.448;7.306;2023-03-05T16:09:45;5.73;;;5.13;;
4533;SDS011;2279;51.448;7.306;2023-03-05T16:12:13;7.37;;;5.87;;
4533;SDS011;2279;51.448;7.306;2023-03-05T16:14:42;8.80;;;7.20;;
4533;SDS011;2279;51.448;7.306;2023-03-05T16:17:08;12.00;;;8.23;;
4533;SDS011;2279;51.448;7.306;2023-03-05T16:19:34;8.10;;;6.30;;
4533;SDS011;2279;51.448;7.306;2023-03-05T16:22:01;10.50;;;6.30;;
4533;SDS011;2279;51.448;7.306;2023-03-05T16:24:27;8.90;;;6.80;;
4533;SDS011;2279;51.448;7.306;2023-03-05T16:26:53;12.27;;;6.90;;
4533;SDS011;2279;51.448;7.306;2023-03-05T16:29:19;12.80;;;6.40;;
4533;SDS011;2279;51.448;7.306;2023-03-05T16:31:45;10.07;;;6.87;;
4533;SDS011;2279;51.448;7.306;2023-03-05T16:34:11;9.60;;;6.00;;
4533;SDS011;2279;51.448;7.306;2023-03-05T16:36:38;8.13;;;6.53;;
4533;SDS011;2279;51.448;7.306;2023-03-05T16:39:05;7.53;;;5.67;;
4533;SDS011;2279;51.448;7.306;2023-03-05T16:41:31;6.60;;;6.00;;